Weather at Santa Fé City Airport [CLOSED]

Public forecast

Using degrees Celsius for public forecast. Weather courtesy of forecast.io.

Closest aviation weather report (METAR) to Santa Fé City Airport

Report is more than 6 hours old.

Closest report is Sauce Viejo Airport, 3.1 nm (5.8 km) S.

2023/09/20 18:20 (retrieved 21 hours ago)

SAAV 201820Z 16005KT 6000 DZ OVC004 18/16 Q1013 RMK PP///

Closest aviation forecast (TAF) to Santa Fé City Airport

Closest forecast is Rosario Islas Malvinas International Airport, 74.7 nm (138.4 km) S.

2023/09/21 12:00 (retrieved 3 hours ago)

TAF SAAR 211100Z 2112/2212 VRB03KT 2000 BR BKN002 OVC004 TX25/2119Z TN16/2210Z TEMPO 2112/2113 0900 FG OVC002 BECMG 2113/2116 05005KT 9999 NSW SCT030 BECMG 2119/2122 11010KT CAVOK